Station: Edinburgh

  Atmospheric Gas Attenuation - ITU Rec 676-11   --------------- db/100km ---------------
Date Time Temp RH % AH g/m3 Dew Point Wind Direction Speed kph Gust kph Barometer mB Rainfall Since 9am 24GHz 47GHz 76GHz 122GHz 134GHz 241GHz
25 01:50 15.3 72 9.4 10.3 0 0 1012.2 0 21.2 26.7 42.2 110.9 106.9 368.6
25 01:40 15.5 72 9.52 10.5 0 0 1012.4 0 21.5 26.9 42.6 111.9 108.3 373.3
25 01:30 15.9 70 9.48 10.4 0 4 1012.4 0 21.4 26.7 42.2 110.9 107.2 369.5
25 01:20 16.1 68 9.32 10.2 4 6 1012.5 0 21.0 26.4 41.5 108.9 104.8 361.2
25 01:10 16.5 67 9.41 10.4 6 6 1012.6 0 21.2 26.4 41.6 109.4 105.5 363.5
25 01:00 16.6 66 9.32 10.2 7 11 1012.7 0 21.0 26.2 41.2 108.3 104.2 359.0
25 00:50 17.4 65 9.63 10.8 7 9 1012.8 0 21.6 26.5 42.0 110.5 107.1 369.5
25 00:40 17.6 66 9.9 11.2 7 9 1012.9 0 22.2 26.9 43.0 113.1 110.4 380.9
25 00:30 17.3 68 10.02 11.3 9 11 1013 0 22.4 27.1 43.7 114.8 112.4 387.9
25 00:20 16.4 68 9.49 10.5 9 11 1013.1 0 21.4 26.6 42.0 110.4 106.7 367.8
25 00:10 17.3 68 10.02 11.3 9 9 1013.2 0 22.4 27.2 43.7 114.8 112.4 388.0
25 00:00 16.8 69 9.86 11.1 9 11 1013.4 0 22.1 27.1 43.3 113.8 111.0 383.1
24 23:50 16.8 62 8.86 9.5 9 9 1013.5 0 20.0 25.5 39.3 103.3 98.0 337.5
24 23:40 17.5 60 8.94 9.7 0 0 1013.7 0 20.1 25.4 39.3 103.2 98.2 338.2
24 23:30 17.8 64 9.71 10.9 0 0 1013.8 0 21.8 26.5 42.2 110.9 107.7 371.5
24 23:20 17 61 8.83 9.4 0 0 1013.9 0 19.9 25.4 39.1 102.7 97.4 335.5
24 23:10 16.9 59 8.49 8.8 0 0 1014 0 19.2 24.9 37.9 99.4 93.2 320.8
24 23:00 17.7 55 8.3 8.6 6 6 1014 0 18.8 24.4 36.8 96.5 89.9 309.3
24 22:50 18.1 53 8.19 8.4 4 6 1014 0 18.5 24.1 36.2 94.9 88.1 303.0
24 22:40 19.4 57 9.51 10.7 6 7 1014.1 0 21.2 25.8 40.6 106.6 103.0 355.3
24 22:30 19.7 61 10.36 12 9 13 1014.2 0 23.0 27.0 43.7 115.0 113.5 392.0
24 22:20 18.1 58 8.96 9.7 7 11 1014.2 0 20.1 25.3 39.1 102.7 97.7 336.7
24 22:10 17.8 54 8.2 8.4 0 0 1014.3 0 18.6 24.2 36.4 95.4 88.6 304.7
24 22:00 17.9 53 8.09 8.2 0 0 1014.3 0 18.3 24.0 35.9 94.2 87.1 299.6
24 21:50 18.2 50 7.77 7.6 0 0 1014.3 0 17.6 23.4 34.6 90.7 82.9 284.8
24 21:40 18.9 51 8.26 8.6 2 4 1014.2 0 18.6 24.0 36.1 94.7 88.1 303.1
24 21:30 18.9 50 8.1 8.3 4 7 1014.1 0 18.3 23.7 35.5 93.1 86.2 296.2
24 21:20 19 49 7.98 8.1 6 7 1014 0 18.0 23.5 35.0 91.8 84.6 290.8
24 21:10 19.6 48 8.1 8.3 7 9 1014 0 18.3 23.6 35.2 92.3 85.4 293.6
24 21:00 20 47 8.12 8.4 7 11 1014 0 18.3 23.5 35.1 92.0 85.2 293.0
24 20:50 20 46 7.95 8 7 9 1014.1 0 17.9 23.2 34.5 90.4 83.2 286.0
24 20:40 19.8 46 7.86 7.9 7 7 1014 0 17.7 23.2 34.3 89.7 82.3 282.9
24 20:30 19.9 45 7.73 7.6 11 13 1014.1 0 17.5 22.9 33.8 88.4 80.7 277.2
24 20:20 20.3 44 7.74 7.7 11 13 1014 0 17.5 22.9 33.6 88.0 80.4 276.2
24 20:10 20.6 42 7.52 7.2 13 13 1013.9 0 17.0 22.5 32.7 85.6 77.5 266.2
24 20:00 21 41 7.51 7.3 19 22 1013.9 0 17.0 22.4 32.5 85.1 77.0 264.5
24 19:50 21.2 39 7.23 6.7 19 20 1013.9 0 16.4 21.9 31.5 82.3 73.6 252.6
24 19:40 21.6 38 7.21 6.7 19 20 1013.8 0 16.3 21.8 31.3 81.7 73.0 250.6
24 19:30 22 37 7.18 6.7 20 24 1013.8 0 16.2 21.7 31.0 81.0 72.3 248.2
24 19:20 22.2 36 7.07 6.4 22 24 1013.7 0 16.0 21.5 30.5 79.8 70.9 243.2
24 19:10 22.5 36 7.19 6.7 20 24 1013.7 0 16.2 21.5 30.8 80.6 72.0 247.0
24 19:00 22.8 35 7.11 6.6 22 28 1013.7 0 16.1 21.4 30.5 79.6 70.8 243.0
24 18:50 22.7 35 7.07 6.5 20 22 1013.7 0 16.0 21.3 30.4 79.4 70.5 241.7
24 18:40 22.8 36 7.31 7 26 28 1013.6 0 16.5 21.6 31.1 81.4 73.1 250.8
24 18:30 23.2 36 7.48 7.3 24 30 1013.6 0 16.8 21.8 31.6 82.6 74.6 256.2
24 18:20 23.4 36 7.57 7.5 22 24 1013.6 0 17.0 21.9 31.8 83.2 75.4 259.1
24 18:10 22.7 37 7.48 7.3 26 32 1013.6 0 16.8 21.9 31.7 83.1 75.1 257.8
24 18:00 23.3 37 7.74 7.8 26 35 1013.7 0 17.3 22.1 32.4 84.8 77.4 266.2
24 17:50 23.3 36 7.53 7.4 24 28 1013.7 0 16.9 21.8 31.7 82.9 75.1 257.9
24 17:40 24.1 34 7.44 7.3 26 30 1013.7 0 16.7 21.5 31.1 81.3 73.3 251.9
24 17:30 23.8 35 7.53 7.4 22 30 1013.8 0 16.9 21.7 31.5 82.4 74.6 256.3
24 17:20 24 33 7.18 6.7 20 24 1013.8 0 16.2 21.2 30.3 79.1 70.6 242.2
24 17:10 24 34 7.4 7.2 24 26 1013.8 0 16.6 21.5 31.0 81.1 73.0 250.7
24 17:00 23.8 32 6.88 6.1 24 30 1014 0 15.5 20.8 29.3 76.7 67.5 231.3
24 16:50 23.9 33 7.14 6.7 26 30 1014 0 16.1 21.2 30.2 78.9 70.2 241.0
24 16:40 23.6 33 7.02 6.4 30 30 1014 0 15.8 21.1 29.9 78.1 69.2 237.3
24 16:30 23.8 32 6.88 6.1 26 32 1014.1 0 15.5 20.8 29.4 76.7 67.5 231.4
24 16:20 23.5 32 6.77 5.9 28 30 1014.1 0 15.3 20.8 29.1 76.0 66.6 228.0
24 16:10 23.5 33 6.98 6.3 26 30 1014.2 0 15.8 21.0 29.8 77.8 68.8 236.0
24 16:00 24 34 7.4 7.2 22 28 1014.4 0 16.6 21.5 31.0 81.1 73.0 250.8
24 15:50 23.6 36 7.66 7.7 22 30 1014.6 0 17.2 22.0 32.1 83.9 76.3 262.2
24 15:40 23.9 36 7.79 7.9 22 24 1014.7 0 17.4 22.1 32.4 84.8 77.5 266.4
24 15:30 23.1 37 7.65 7.6 22 30 1014.8 0 17.2 22.1 32.2 84.3 76.7 263.5
24 15:20 22.9 38 7.77 7.8 19 22 1014.9 0 17.4 22.3 32.7 85.6 78.2 268.9
24 15:10 23 39 8.02 8.3 26 30 1015 0 17.9 22.6 33.5 87.8 81.0 278.6
24 15:00 23.3 40 8.36 9 22 32 1015.2 0 18.6 23.0 34.6 90.7 84.6 291.3
24 14:50 23 41 8.43 9 26 30 1015.4 0 18.8 23.2 35.0 91.7 85.7 295.3
24 14:40 22.8 42 8.53 9.2 20 28 1015.5 0 19.0 23.4 35.4 92.9 87.1 300.1
24 14:30 23.1 43 8.89 9.8 24 32 1015.5 0 19.8 23.9 36.6 96.0 91.0 313.8
24 14:20 22.6 45 9.04 10.1 22 28 1015.7 0 20.1 24.2 37.4 98.0 93.4 322.0
24 14:10 22.1 49 9.56 10.9 26 30 1015.7 0 21.2 25.1 39.5 103.7 100.3 346.1
24 14:00 22.9 49 10.01 11.6 26 33 1015.8 0 22.1 25.6 40.8 107.2 104.8 361.9
24 13:50 22.1 50 9.76 11.2 26 28 1016 0 21.6 25.4 40.3 105.8 102.7 354.7
24 13:40 21.8 51 9.78 11.2 30 32 1016 0 21.7 25.6 40.5 106.4 103.4 356.9
24 13:30 21.3 51 9.51 10.8 28 39 1016.2 0 21.1 25.3 39.7 104.3 100.7 347.5
24 13:20 21.9 50 9.65 11 32 37 1016.3 0 21.4 25.3 40.0 105.0 101.7 351.0
24 13:10 22 50 9.7 11.1 28 32 1016.4 0 21.5 25.4 40.1 105.3 102.2 352.7
24 13:00 21.3 51 9.51 10.8 24 33 1016.5 0 21.1 25.3 39.7 104.4 100.7 347.6
24 12:50 21.4 51 9.56 10.9 24 26 1016.6 0 21.2 25.4 39.9 104.7 101.2 349.4
24 12:40 21.2 51 9.45 10.7 26 32 1016.6 0 21.0 25.2 39.6 103.9 100.1 345.5
24 12:30 21.6 49 9.29 10.4 24 35 1016.7 0 20.7 24.9 38.8 101.8 97.7 336.9
24 12:20 21.2 50 9.27 10.4 28 33 1016.9 0 20.6 25.0 38.9 102.1 97.9 337.8
24 12:10 21.3 50 9.32 10.5 24 30 1017 0 20.7 25.0 39.1 102.5 98.4 339.6
24 12:00 20.6 51 9.13 10.1 20 28 1017.1 0 20.4 24.9 38.7 101.5 97.0 334.4
24 11:50 20.7 51 9.18 10.2 22 26 1017.1 0 20.5 25.0 38.8 101.9 97.5 336.1
24 11:40 21.1 51 9.4 10.6 22 28 1017.2 0 20.9 25.2 39.5 103.6 99.7 343.9
24 11:30 20.7 50 9 9.9 19 24 1017.3 0 20.1 24.7 38.2 100.1 95.3 328.4
24 11:20 20.7 47 8.46 9 19 24 1017.3 0 19.0 23.9 36.2 94.8 88.7 305.5
24 11:10 20.4 48 8.49 9 17 19 1017.3 0 19.0 24.0 36.4 95.5 89.4 307.9
24 11:00 20.4 47 8.31 8.7 13 20 1017.5 0 18.7 23.8 35.8 93.7 87.3 300.4
24 10:50 19.6 46 7.76 7.7 11 13 1017.6 0 17.5 23.2 34.1 89.3 81.6 280.3
24 10:40 20.1 45 7.82 7.8 7 9 1017.7 0 17.6 23.2 34.1 89.4 81.8 281.1
24 10:30 19.3 45 7.46 7.1 9 19 1017.7 0 16.9 22.8 33.2 86.8 78.3 268.9
24 10:20 19.3 47 7.8 7.7 9 11 1017.7 0 17.6 23.3 34.4 90.0 82.4 283.0
24 10:10 18.6 48 7.64 7.4 9 11 1017.8 0 17.3 23.3 34.1 89.3 81.2 278.8
24 10:00 18.3 51 7.97 8 7 11 1017.9 0 18.0 23.8 35.5 92.9 85.5 293.8
24 09:50 17.7 54 8.15 8.3 6 7 1018.2 0 18.4 24.3 36.4 95.4 88.4 303.9
24 09:40 17.7 55 8.3 8.6 7 11 1018.1 0 18.8 24.5 37.0 96.9 90.2 310.4
24 09:30 17.2 55 8.05 8.1 7 13 1018.2 0 18.3 24.3 36.3 95.0 87.7 301.4
24 09:20 17.1 58 8.44 8.8 7 9 1018.4 0 19.1 24.9 37.8 99.1 92.7 318.9

Last Refresh: 25-Nov-2020 02:00:19

Most of the information presented on this site is sourced from the Bureau of Meteorology.  Copyright in all material sourced from the Bureau of Meteorology resides with the Commonwealth of Australia.